createdAt,value
2018-03-01T00:01:07.256Z,-9.07
2018-03-01T00:02:28.932Z,-9.19
2018-03-01T00:03:50.554Z,-9.07
2018-03-01T00:05:12.691Z,-9.04
2018-03-01T00:06:34.399Z,-9.08
2018-03-01T00:07:56.246Z,-9.11
2018-03-01T00:09:17.876Z,-9.05
2018-03-01T00:10:39.219Z,-8.98
2018-03-01T00:12:01.193Z,-9.07
2018-03-01T00:13:22.816Z,-9.05
2018-03-01T00:14:44.951Z,-9.1
2018-03-01T00:16:06.558Z,-9.04
2018-03-01T00:17:28.165Z,-9.02
2018-03-01T00:18:50.282Z,-9.07
2018-03-01T00:20:12.206Z,-9.05
2018-03-01T00:21:33.905Z,-9.01
2018-03-01T00:22:55.725Z,-9.11
2018-03-01T00:24:17.051Z,-9.08
2018-03-01T00:25:38.945Z,-9.22
2018-03-01T00:27:00.544Z,-9.07
2018-03-01T00:28:22.135Z,-9.01
2018-03-01T00:29:43.802Z,-9.12
2018-03-01T00:31:05.126Z,-9.26
2018-03-01T00:32:27.035Z,-9.19
2018-03-01T00:33:48.983Z,-9.19
2018-03-01T00:35:10.577Z,-9.1
2018-03-01T00:36:31.903Z,-9.05
2018-03-01T00:37:53.293Z,-9.18
2018-03-01T00:39:15.153Z,-9.15
2018-03-01T00:40:37.186Z,-9.1
2018-03-01T00:41:59.182Z,-9.18
2018-03-01T00:43:21.027Z,-9.11
2018-03-01T00:44:43.411Z,-9.11
2018-03-01T00:46:05.017Z,-9.19
2018-03-01T00:47:27.150Z,-9.19
2018-03-01T00:48:48.747Z,-9.14
2018-03-01T00:50:10.885Z,-9.19
2018-03-01T00:51:32.490Z,-9.29
2018-03-01T00:52:54.604Z,-9.2
2018-03-01T00:54:16.704Z,-9.18
2018-03-01T00:55:39.044Z,-9.22
2018-03-01T00:57:00.911Z,-9.2
2018-03-01T00:58:22.296Z,-9.11
2018-03-01T00:59:43.919Z,-9.05
2018-03-01T01:01:05.727Z,-9.05
2018-03-01T01:02:27.455Z,-9.04
2018-03-01T01:03:49.123Z,-9.07
2018-03-01T01:05:10.715Z,-9.02
2018-03-01T01:06:32.583Z,-9
2018-03-01T01:07:54.503Z,-9.04
2018-03-01T01:09:16.175Z,-9.08
2018-03-01T01:10:38.055Z,-9.05
2018-03-01T01:12:00.217Z,-9.1
2018-03-01T01:13:21.826Z,-9.07
2018-03-01T01:14:43.197Z,-9.1
2018-03-01T01:16:05.057Z,-9.04
2018-03-01T01:17:26.406Z,-9.07
2018-03-01T01:18:48.338Z,-9.05
2018-03-01T01:20:10.455Z,-9.02
2018-03-01T01:21:32.046Z,-9.1
2018-03-01T01:22:53.905Z,-9.08
2018-03-01T01:24:15.798Z,-9.1
2018-03-01T01:25:37.763Z,-9.02
2018-03-01T01:26:59.645Z,-9.11
2018-03-01T01:28:21.479Z,-9.02
2018-03-01T01:29:43.492Z,-9.01
2018-03-01T01:31:05.614Z,-9.11
2018-03-01T01:32:27.493Z,-9.1
2018-03-01T01:33:49.337Z,-9.08
2018-03-01T01:35:10.924Z,-9.1
2018-03-01T01:36:32.957Z,-9.1
2018-03-01T01:37:55.084Z,-9.07
2018-03-01T01:39:16.685Z,-9.04
2018-03-01T01:40:38.544Z,-9.18
2018-03-01T01:41:59.899Z,-9.02
2018-03-01T01:43:21.500Z,-9
2018-03-01T01:44:43.377Z,-9.08
2018-03-01T01:46:04.706Z,-9.08
2018-03-01T01:47:26.287Z,-9.02
2018-03-01T01:48:47.616Z,-9.05
2018-03-01T01:50:09.734Z,-9.04
2018-03-01T01:51:31.085Z,-9.04
2018-03-01T01:52:52.934Z,-9
2018-03-01T01:54:14.774Z,-9.04
2018-03-01T01:55:36.118Z,-9.01
2018-03-01T01:56:58.086Z,-9
2018-03-01T01:58:19.688Z,-8.98
2018-03-01T01:59:41.280Z,-8.94
2018-03-01T02:01:02.865Z,-9.01
2018-03-01T02:02:24.726Z,-9.01
2018-03-01T02:03:46.316Z,-8.94
2018-03-01T02:05:07.896Z,-9.01
2018-03-01T02:06:29.492Z,-8.96
2018-03-01T02:07:51.475Z,-9.01
2018-03-01T02:09:13.318Z,-9.08
2018-03-01T02:10:35.223Z,-9.08
2018-03-01T02:11:56.595Z,-9.04
2018-03-01T02:13:18.565Z,-9.02
2018-03-01T02:14:39.895Z,-9
2018-03-01T02:16:01.287Z,-9.01
2018-03-01T02:17:23.135Z,-9.14
2018-03-01T02:18:45.235Z,-9
2018-03-01T02:20:07.094Z,-9.05
2018-03-01T02:21:28.175Z,-9.01
2018-03-01T02:22:49.808Z,-9.08
2018-03-01T02:24:11.383Z,-9.11
2018-03-01T02:25:33.252Z,-9.08
2018-03-01T02:26:55.156Z,-9.11
2018-03-01T02:28:17.027Z,-9.11
2018-03-01T02:29:38.865Z,-9.14
2018-03-01T02:31:00.725Z,-9.01
2018-03-01T02:32:22.416Z,-9.02
2018-03-01T02:33:44.336Z,-9.12
2018-03-01T02:35:06.186Z,-9
2018-03-01T02:36:27.768Z,-9
2018-03-01T02:37:49.456Z,-9.11
2018-03-01T02:39:10.790Z,-8.96
2018-03-01T02:40:32.657Z,-9.01
2018-03-01T02:41:54.515Z,-8.89
2018-03-01T02:43:16.103Z,-8.96
2018-03-01T02:44:37.764Z,-8.89
2018-03-01T02:45:59.626Z,-9.02
2018-03-01T02:47:21.258Z,-9.01
2018-03-01T02:48:42.872Z,-9.08
2018-03-01T02:50:05.315Z,-8.98
2018-03-01T02:51:26.386Z,-9.01
2018-03-01T02:52:48.270Z,-8.98
2018-03-01T02:54:09.855Z,-9.02
2018-03-01T02:55:31.992Z,-8.98
2018-03-01T02:56:53.141Z,-9.02
2018-03-01T02:58:14.986Z,-9.02
2018-03-01T02:59:36.819Z,-9
2018-03-01T03:00:58.934Z,-8.94
2018-03-01T03:02:20.326Z,-9.1
2018-03-01T03:03:41.919Z,-9.07
2018-03-01T03:05:03.284Z,-9.07
2018-03-01T03:06:24.948Z,-9.05
2018-03-01T03:07:46.148Z,-9.08
2018-03-01T03:09:07.855Z,-9.07
2018-03-01T03:10:29.198Z,-9.07
2018-03-01T03:11:50.536Z,-9.08
2018-03-01T03:13:12.670Z,-8.91
2018-03-01T03:14:34.253Z,-8.94
2018-03-01T03:15:55.847Z,-9.02
2018-03-01T03:17:17.706Z,-9.02
2018-03-01T03:18:39.597Z,-9
2018-03-01T03:20:01.176Z,-8.94
2018-03-01T03:21:22.526Z,-9.02
2018-03-01T03:22:44.202Z,-8.94
2018-03-01T03:24:05.749Z,-9
2018-03-01T03:25:27.619Z,-8.91
2018-03-01T03:26:49.237Z,-9.02
2018-03-01T03:28:11.412Z,-8.89
2018-03-01T03:29:33.264Z,-8.91
2018-03-01T03:30:55.249Z,-8.94
2018-03-01T03:32:16.864Z,-9.07
2018-03-01T03:33:39.268Z,-8.94
2018-03-01T03:35:00.862Z,-9.07
2018-03-01T03:36:22.732Z,-9.02
2018-03-01T03:37:44.315Z,-8.98
2018-03-01T03:39:05.915Z,-8.94
2018-03-01T03:40:27.822Z,-9.04
2018-03-01T03:41:49.962Z,-9
2018-03-01T03:43:12.057Z,-8.93
2018-03-01T03:44:33.118Z,-9.01
2018-03-01T03:45:54.701Z,-8.9
2018-03-01T03:47:16.289Z,-9.01
2018-03-01T03:48:37.876Z,-8.9
2018-03-01T03:49:59.508Z,-8.96
2018-03-01T03:51:21.725Z,-8.96
2018-03-01T03:52:43.312Z,-9.08
2018-03-01T03:54:04.914Z,-8.94
2018-03-01T03:55:26.228Z,-8.91
2018-03-01T03:56:48.198Z,-8.91
2018-03-01T03:58:09.849Z,-8.93
2018-03-01T03:59:31.795Z,-8.9
2018-03-01T04:00:53.634Z,-8.91
2018-03-01T04:02:14.968Z,-8.93
2018-03-01T04:03:36.636Z,-9.05
2018-03-01T04:04:57.896Z,-8.98
2018-03-01T04:06:19.491Z,-9.01
2018-03-01T04:07:41.360Z,-9.04
2018-03-01T04:09:03.595Z,-8.91
2018-03-01T04:10:25.468Z,-8.93
2018-03-01T04:11:47.368Z,-9.02
2018-03-01T04:13:09.235Z,-8.89
2018-03-01T04:14:30.577Z,-8.86
2018-03-01T04:15:51.955Z,-8.76
2018-03-01T04:17:14.335Z,-8.8
2018-03-01T04:18:36.184Z,-8.9
2018-03-01T04:19:57.825Z,-8.89
2018-03-01T04:21:19.926Z,-8.89
2018-03-01T04:22:41.587Z,-8.9
2018-03-01T04:24:03.499Z,-8.94
2018-03-01T04:25:25.086Z,-8.91
2018-03-01T04:26:46.947Z,-8.93
2018-03-01T04:28:08.605Z,-8.87
2018-03-01T04:29:30.058Z,-8.8
2018-03-01T04:30:52.235Z,-8.86
2018-03-01T04:32:13.560Z,-8.83
2018-03-01T04:33:35.704Z,-8.89
2018-03-01T04:34:57.020Z,-8.86
2018-03-01T04:36:18.694Z,-8.83
2018-03-01T04:37:40.564Z,-8.87
2018-03-01T04:39:02.178Z,-8.83
2018-03-01T04:40:24.273Z,-8.86
2018-03-01T04:41:46.136Z,-8.91
2018-03-01T04:43:08.070Z,-8.93
2018-03-01T04:44:30.208Z,-8.89
2018-03-01T04:45:52.086Z,-8.93
2018-03-01T04:47:13.940Z,-8.93
2018-03-01T04:48:35.566Z,-9.01
2018-03-01T04:49:57.210Z,-9
2018-03-01T04:51:18.831Z,-8.94
2018-03-01T04:52:40.467Z,-8.93
2018-03-01T04:54:02.648Z,-8.9
2018-03-01T04:55:24.275Z,-8.94
2018-03-01T04:56:46.200Z,-8.93
2018-03-01T04:58:08.294Z,-8.89
2018-03-01T04:59:29.385Z,-8.91
2018-03-01T05:00:51.421Z,-8.89
2018-03-01T05:02:13.327Z,-8.94
2018-03-01T05:03:34.648Z,-8.94
2018-03-01T05:04:56.523Z,-8.93
2018-03-01T05:06:18.125Z,-8.93
2018-03-01T05:07:40.256Z,-9.02
2018-03-01T05:09:02.126Z,-8.91
2018-03-01T05:10:23.716Z,-8.91
2018-03-01T05:11:45.097Z,-8.94
2018-03-01T05:13:06.434Z,-9.01
2018-03-01T05:14:28.274Z,-8.98
2018-03-01T05:15:50.405Z,-9.01
2018-03-01T05:17:12.334Z,-9.08
2018-03-01T05:18:34.455Z,-9
2018-03-01T05:19:56.332Z,-8.94
2018-03-01T05:21:17.938Z,-9.02
2018-03-01T05:22:39.766Z,-9.04
2018-03-01T05:24:01.358Z,-9.02
2018-03-01T05:25:23.579Z,-9.07
2018-03-01T05:26:45.928Z,-9.05
2018-03-01T05:28:07.806Z,-9.02
2018-03-01T05:29:29.939Z,-9.04
2018-03-01T05:30:50.999Z,-9.05
2018-03-01T05:32:12.619Z,-9.07
2018-03-01T05:33:34.454Z,-9.1
2018-03-01T05:34:56.657Z,-9.08
2018-03-01T05:36:18.273Z,-9.1
2018-03-01T05:37:40.207Z,-9.19
2018-03-01T05:39:02.080Z,-9.18
2018-03-01T05:40:24.293Z,-9.22
2018-03-01T05:41:46.183Z,-9.18
2018-03-01T05:43:08.069Z,-9.1
2018-03-01T05:44:29.936Z,-9.25
2018-03-01T05:45:51.607Z,-9.2
2018-03-01T05:47:13.750Z,-9.3
2018-03-01T05:48:35.101Z,-9.25
2018-03-01T05:49:56.978Z,-9.25
2018-03-01T05:51:18.931Z,-9.15
2018-03-01T05:52:40.793Z,-9.23
2018-03-01T05:54:02.989Z,-9.2
2018-03-01T05:55:24.620Z,-9.32
2018-03-01T05:56:46.559Z,-9.32
2018-03-01T05:58:08.449Z,-9.3
2018-03-01T05:59:30.600Z,-9.32
2018-03-01T06:00:52.757Z,-9.36
2018-03-01T06:02:14.919Z,-9.37
2018-03-01T06:03:36.548Z,-9.41
2018-03-01T06:04:58.201Z,-9.32
2018-03-01T06:06:20.156Z,-9.32
2018-03-01T06:07:41.906Z,-9.3
2018-03-01T06:09:03.857Z,-9.25
2018-03-01T06:10:26.012Z,-9.29
2018-03-01T06:11:48.189Z,-9.36
2018-03-01T06:13:09.529Z,-9.29
2018-03-01T06:14:31.176Z,-9.32
2018-03-01T06:15:53.215Z,-9.3
2018-03-01T06:17:15.182Z,-9.3
2018-03-01T06:18:36.585Z,-9.37
2018-03-01T06:19:58.747Z,-9.32
2018-03-01T06:21:20.387Z,-9.32
2018-03-01T06:22:42.784Z,-9.3
2018-03-01T06:24:04.682Z,-9.3
2018-03-01T06:25:26.959Z,-9.32
2018-03-01T06:26:49.183Z,-9.37
2018-03-01T06:28:11.210Z,-9.37
2018-03-01T06:29:33.119Z,-9.33
2018-03-01T06:30:54.515Z,-9.23
2018-03-01T06:32:16.698Z,-9.15
2018-03-01T06:33:38.835Z,-9.14
2018-03-01T06:35:00.475Z,-9.19
2018-03-01T06:36:22.362Z,-9.26
2018-03-01T06:37:43.985Z,-9.05
2018-03-01T06:39:05.853Z,-9.07
2018-03-01T06:40:27.198Z,-9.05
2018-03-01T06:41:49.084Z,-9.02
2018-03-01T06:43:11.365Z,-8.98
2018-03-01T06:44:33.288Z,-8.9
2018-03-01T06:45:54.947Z,-8.93
2018-03-01T06:47:16.865Z,-8.89
2018-03-01T06:48:39.007Z,-8.83
2018-03-01T06:50:00.899Z,-8.87
2018-03-01T06:51:23.057Z,-8.86
2018-03-01T06:52:44.832Z,-8.81
2018-03-01T06:54:06.449Z,-8.81
2018-03-01T06:55:27.796Z,-8.68
2018-03-01T06:56:49.416Z,-8.66
2018-03-01T06:58:11.581Z,-8.63
2018-03-01T06:59:33.208Z,-8.6
2018-03-01T07:00:55.110Z,-8.5
2018-03-01T07:02:17.062Z,-8.39
2018-03-01T07:03:38.941Z,-8.33
2018-03-01T07:05:00.828Z,-8.29
2018-03-01T07:06:22.837Z,-8.19
2018-03-01T07:07:44.056Z,-8.02
2018-03-01T07:09:05.934Z,-7.99
2018-03-01T07:10:27.828Z,-7.93
2018-03-01T07:11:49.685Z,-7.64
2018-03-01T07:13:11.033Z,-7.6
2018-03-01T07:14:32.629Z,-7.51
2018-03-01T07:15:54.519Z,-7.43
2018-03-01T07:17:16.117Z,-7.21
2018-03-01T07:18:37.638Z,-7.12
2018-03-01T07:19:59.241Z,-7.02
2018-03-01T07:21:20.696Z,-6.92
2018-03-01T07:22:42.336Z,-6.68
2018-03-01T07:24:04.076Z,-6.25
2018-03-01T07:25:25.767Z,-6.5
2018-03-01T07:26:47.619Z,-6.31
2018-03-01T07:28:08.967Z,-6.42
2018-03-01T07:29:30.872Z,-6.43
2018-03-01T07:30:52.516Z,-6.42
2018-03-01T07:32:14.148Z,-6.47
2018-03-01T07:33:36.028Z,-6.83
2018-03-01T07:34:57.530Z,-7.08
2018-03-01T07:36:18.876Z,-7.25
2018-03-01T07:37:40.478Z,-7.41
2018-03-01T07:39:02.689Z,-7.54
2018-03-01T07:40:24.571Z,-7.79
2018-03-01T07:41:46.516Z,-7.83
2018-03-01T07:43:08.418Z,-7.97
2018-03-01T07:44:30.645Z,-7.89
2018-03-01T07:45:51.997Z,-7.94
2018-03-01T07:47:13.896Z,-8.01
2018-03-01T07:48:36.153Z,-7.89
2018-03-01T07:49:57.498Z,-7.8
2018-03-01T07:51:19.125Z,-7.82
2018-03-01T07:52:40.796Z,-7.79
2018-03-01T07:54:02.658Z,-7.89
2018-03-01T07:55:24.775Z,-7.78
2018-03-01T07:56:46.393Z,-7.73
2018-03-01T07:58:08.258Z,-7.75
2018-03-01T07:59:30.253Z,-7.66
2018-03-01T08:00:51.856Z,-7.61
2018-03-01T08:02:13.724Z,-7.51
2018-03-01T08:03:34.540Z,-7.51
2018-03-01T08:04:56.672Z,-7.5
2018-03-01T08:06:18.524Z,-7.55
2018-03-01T08:07:40.141Z,-7.48
2018-03-01T08:09:02.078Z,-7.41
2018-03-01T08:10:23.682Z,-7.33
2018-03-01T08:11:45.574Z,-7.33
2018-03-01T08:13:07.815Z,-7.26
2018-03-01T08:14:29.840Z,-7.23
2018-03-01T08:15:51.432Z,-7.23
2018-03-01T08:17:13.024Z,-7.3
2018-03-01T08:18:34.364Z,-7.4
2018-03-01T08:19:56.243Z,-7.37
2018-03-01T08:21:17.883Z,-7.34
2018-03-01T08:22:39.739Z,-7.34
2018-03-01T08:24:01.890Z,-7.43
2018-03-01T08:25:24.114Z,-7.25
2018-03-01T08:26:46.347Z,-7.23
2018-03-01T08:28:08.255Z,-7.25
2018-03-01T08:29:29.664Z,-7.25
2018-03-01T08:30:51.277Z,-7.21
2018-03-01T08:32:13.408Z,-7.12
2018-03-01T08:33:34.748Z,-7.13
2018-03-01T08:34:56.642Z,-7.12
2018-03-01T08:36:18.542Z,-7.12
2018-03-01T08:37:39.621Z,-7.02
2018-03-01T08:39:01.764Z,-6.98
2018-03-01T08:40:23.652Z,-6.97
2018-03-01T08:41:45.262Z,-6.98
2018-03-01T08:43:06.901Z,-6.92
2018-03-01T08:44:28.548Z,-6.89
2018-03-01T08:45:50.414Z,-6.86
2018-03-01T08:47:12.053Z,-6.69
2018-03-01T08:48:33.941Z,-6.8
2018-03-01T08:49:55.970Z,-6.5
2018-03-01T08:51:17.834Z,-6.42
2018-03-01T08:52:39.979Z,-6.29
2018-03-01T08:54:01.576Z,-6.25
2018-03-01T08:55:55.307Z,-6.13
2018-03-01T08:57:16.957Z,-6.13
2018-03-01T08:58:38.573Z,-6.03
2018-03-01T09:00:00.031Z,-6.05
2018-03-01T09:01:21.719Z,-6.11
2018-03-01T09:02:43.714Z,-6.07
2018-03-01T09:04:05.104Z,-5.92
2018-03-01T09:05:27.245Z,-5.74
2018-03-01T09:06:48.937Z,-5.79
2018-03-01T09:08:10.942Z,-5.68
2018-03-01T09:09:32.604Z,-5.79
2018-03-01T09:10:54.474Z,-5.84
2018-03-01T09:12:16.465Z,-5.83
2018-03-01T09:13:38.890Z,-5.8
2018-03-01T09:15:00.511Z,-5.75
2018-03-01T09:16:22.378Z,-5.72
2018-03-01T09:17:44.254Z,-5.83
2018-03-01T09:19:06.388Z,-5.8
2018-03-01T09:20:28.534Z,-5.89
2018-03-01T09:21:50.676Z,-5.86
2018-03-01T09:23:12.541Z,-5.79
2018-03-01T09:24:34.738Z,-5.66
2018-03-01T09:25:56.719Z,-5.71
2018-03-01T09:27:18.311Z,-5.71
2018-03-01T09:28:40.204Z,-5.79
2018-03-01T09:30:02.088Z,-5.65
2018-03-01T09:31:23.971Z,-5.62
2018-03-01T09:32:45.574Z,-5.46
2018-03-01T09:34:07.695Z,-5.44
2018-03-01T09:35:29.565Z,-5.36
2018-03-01T09:36:51.705Z,-5.27
2018-03-01T09:38:13.296Z,-5.18
2018-03-01T09:39:35.319Z,-5.19
2018-03-01T09:40:56.644Z,-5.25
2018-03-01T09:42:18.575Z,-5.29
2018-03-01T09:43:40.479Z,-5.23
2018-03-01T09:45:02.647Z,-5.13
2018-03-01T09:46:24.271Z,-5.23
2018-03-01T09:47:45.867Z,-5.29
2018-03-01T09:49:08.014Z,-5.14
2018-03-01T09:50:29.600Z,-5.25
2018-03-01T09:51:51.883Z,-5.23
2018-03-01T09:53:14.022Z,-5.1
2018-03-01T09:54:36.230Z,-5.14
2018-03-01T09:55:58.380Z,-4.96
2018-03-01T09:57:20.386Z,-4.93
2018-03-01T09:58:41.734Z,-4.95
2018-03-01T10:00:03.366Z,-4.89
2018-03-01T10:01:25.736Z,-4.81
2018-03-01T10:02:47.848Z,-4.74
2018-03-01T10:04:09.498Z,-4.63
2018-03-01T10:05:31.665Z,-4.6
2018-03-01T10:06:53.836Z,-4.65
2018-03-01T10:08:15.796Z,-4.72
2018-03-01T10:09:36.936Z,-4.68
2018-03-01T10:10:58.581Z,-4.69
2018-03-01T10:12:20.193Z,-4.57
2018-03-01T10:13:42.228Z,-4.57
2018-03-01T10:15:04.347Z,-4.68
2018-03-01T10:16:26.514Z,-4.51
2018-03-01T10:17:48.390Z,-4.38
2018-03-01T10:19:10.269Z,-4.38
2018-03-01T10:21:04.360Z,-4.29
2018-03-01T10:22:26.582Z,-4.33
2018-03-01T10:23:48.655Z,-4.38
2018-03-01T10:25:10.818Z,-4.24
2018-03-01T10:26:32.441Z,-4.22
2018-03-01T10:27:54.304Z,-4.14
2018-03-01T10:29:16.187Z,-4.12
2018-03-01T10:30:38.081Z,-4.17
2018-03-01T10:31:59.701Z,-4.06
2018-03-01T10:33:21.570Z,-3.99
2018-03-01T10:34:43.200Z,-4.03
2018-03-01T10:36:05.094Z,-4.03
2018-03-01T10:37:26.458Z,-4.01
2018-03-01T10:38:48.315Z,-3.85
2018-03-01T10:40:09.966Z,-3.81
2018-03-01T10:41:32.127Z,-3.78
2018-03-01T10:42:54.024Z,-3.81
2018-03-01T10:44:16.046Z,-3.64
2018-03-01T10:45:38.189Z,-3.64
2018-03-01T10:46:59.825Z,-3.64
2018-03-01T10:48:21.246Z,-3.63
2018-03-01T10:49:42.848Z,-3.72
2018-03-01T10:51:04.986Z,-3.62
2018-03-01T10:52:26.851Z,-3.54
2018-03-01T10:53:48.387Z,-3.56
2018-03-01T10:55:10.041Z,-3.43
2018-03-01T10:56:31.385Z,-3.46
2018-03-01T10:57:52.725Z,-3.43
2018-03-01T10:59:14.607Z,-3.49
2018-03-01T11:00:36.244Z,-3.41
2018-03-01T11:01:58.399Z,-3.49
2018-03-01T11:03:20.728Z,-3.54
2018-03-01T11:04:42.592Z,-3.45
2018-03-01T11:06:04.784Z,-3.46
2018-03-01T11:07:26.702Z,-3.59
2018-03-01T11:08:48.407Z,-3.63
2018-03-01T11:10:10.657Z,-3.62
2018-03-01T11:11:32.276Z,-3.49
2018-03-01T11:12:54.257Z,-3.39
2018-03-01T11:14:15.928Z,-3.27
2018-03-01T11:15:37.554Z,-3.25
2018-03-01T11:16:59.425Z,-3.25
2018-03-01T11:18:21.583Z,-3.33
2018-03-01T11:19:43.462Z,-3.38
2018-03-01T11:21:05.584Z,-3.39
2018-03-01T11:22:27.432Z,-3.48
2018-03-01T11:23:49.435Z,-3.31
2018-03-01T11:25:11.560Z,-3.31
2018-03-01T11:26:33.156Z,-3.25
2018-03-01T11:27:54.484Z,-3.05
2018-03-01T11:29:16.769Z,-3
2018-03-01T11:30:38.921Z,-2.96
2018-03-01T11:32:00.529Z,-2.94
2018-03-01T11:33:22.193Z,-3.06
2018-03-01T11:34:43.930Z,-3.02
2018-03-01T11:36:06.211Z,-2.91
2018-03-01T11:37:27.817Z,-2.92
2018-03-01T11:38:49.966Z,-2.97
2018-03-01T11:40:11.571Z,-2.97
2018-03-01T11:41:33.175Z,-3.02
2018-03-01T11:42:54.531Z,-3.03
2018-03-01T11:44:16.173Z,-3.24
2018-03-01T11:45:37.265Z,-3.15
2018-03-01T11:46:59.147Z,-3.03
2018-03-01T11:48:20.489Z,-3
2018-03-01T11:49:42.365Z,-3.03
2018-03-01T11:51:04.508Z,-3.06
2018-03-01T11:52:26.145Z,-3.02
2018-03-01T11:53:48.012Z,-2.85
2018-03-01T11:55:09.907Z,-2.77
2018-03-01T11:56:31.774Z,-2.78
2018-03-01T11:57:53.393Z,-2.84
2018-03-01T11:59:15.332Z,-2.86
2018-03-01T12:00:36.936Z,-2.97
2018-03-01T12:01:58.369Z,-3.05
2018-03-01T12:03:20.310Z,-2.97
2018-03-01T12:04:41.657Z,-2.94
2018-03-01T12:06:03.536Z,-2.81
2018-03-01T12:07:25.870Z,-2.79
2018-03-01T12:08:48.005Z,-2.77
2018-03-01T12:10:10.234Z,-2.74
2018-03-01T12:11:32.110Z,-2.68
2018-03-01T12:12:54.240Z,-2.61
2018-03-01T12:14:16.179Z,-2.48
2018-03-01T12:15:38.123Z,-2.53
2018-03-01T12:16:59.730Z,-2.52
2018-03-01T12:18:21.673Z,-2.52
2018-03-01T12:19:43.550Z,-2.55
2018-03-01T12:21:05.436Z,-2.48
2018-03-01T12:22:27.645Z,-2.68
2018-03-01T12:23:49.791Z,-2.71
2018-03-01T12:25:11.675Z,-2.73
2018-03-01T12:26:33.574Z,-2.58
2018-03-01T12:27:55.714Z,-2.56
2018-03-01T12:29:17.332Z,-2.49
2018-03-01T12:30:39.377Z,-2.68
2018-03-01T12:32:01.508Z,-2.73
2018-03-01T12:33:23.512Z,-2.68
2018-03-01T12:34:45.663Z,-2.7
2018-03-01T12:36:07.019Z,-2.71
2018-03-01T12:37:28.405Z,-2.7
2018-03-01T12:38:50.316Z,-2.71
2018-03-01T12:40:12.204Z,-2.61
2018-03-01T12:41:33.554Z,-2.52
2018-03-01T12:42:55.168Z,-2.46
2018-03-01T12:44:17.334Z,-2.48
2018-03-01T12:45:39.577Z,-2.56
2018-03-01T12:47:01.864Z,-2.53
2018-03-01T12:48:23.761Z,-2.43
2018-03-01T12:49:45.642Z,-2.37
2018-03-01T12:51:07.517Z,-2.52
2018-03-01T12:52:29.142Z,-2.52
2018-03-01T12:53:51.320Z,-2.4
2018-03-01T12:55:13.587Z,-2.29
2018-03-01T12:56:35.532Z,-2.06
2018-03-01T12:57:57.124Z,-2.12
2018-03-01T12:59:19.000Z,-2.3
2018-03-01T13:00:41.134Z,-2.49
2018-03-01T13:02:02.753Z,-2.37
2018-03-01T13:03:24.924Z,-2.39
2018-03-01T13:04:47.079Z,-2.4
2018-03-01T13:06:08.699Z,-2.5
2018-03-01T13:07:30.881Z,-2.55
2018-03-01T13:08:52.826Z,-2.53
2018-03-01T13:10:14.984Z,-2.5
2018-03-01T13:11:36.850Z,-2.5
2018-03-01T13:12:58.986Z,-2.64
2018-03-01T13:14:20.429Z,-2.48
2018-03-01T13:15:42.336Z,-2.42
2018-03-01T13:17:04.202Z,-2.37
2018-03-01T13:18:26.375Z,-2.39
2018-03-01T13:19:48.045Z,-2.39
2018-03-01T13:21:10.211Z,-2.4
2018-03-01T13:22:32.367Z,-2.35
2018-03-01T13:23:53.991Z,-2.37
2018-03-01T13:25:15.084Z,-2.4
2018-03-01T13:26:36.213Z,-2.29
2018-03-01T13:27:58.319Z,-2.23
2018-03-01T13:29:20.212Z,-2.15
2018-03-01T13:30:42.412Z,-2.26
2018-03-01T13:32:04.028Z,-2.34
2018-03-01T13:33:25.643Z,-2.35
2018-03-01T13:34:47.803Z,-2.32
2018-03-01T13:36:09.447Z,-2.29
2018-03-01T13:37:30.933Z,-2.2
2018-03-01T13:38:52.539Z,-2.32
2018-03-01T13:40:14.757Z,-2.15
2018-03-01T13:41:36.754Z,-2.13
2018-03-01T13:42:58.872Z,-2.26
2018-03-01T13:44:20.776Z,-2.27
2018-03-01T13:45:42.924Z,-2.24
2018-03-01T13:47:04.854Z,-2.18
2018-03-01T13:48:27.035Z,-2.15
2018-03-01T13:49:49.175Z,-2.29
2018-03-01T13:51:10.766Z,-2.35
2018-03-01T13:52:32.398Z,-2.26
2018-03-01T13:53:54.295Z,-2.1
2018-03-01T13:55:16.191Z,-2.12
2018-03-01T13:56:38.073Z,-2.2
2018-03-01T13:58:00.223Z,-2.18
2018-03-01T13:59:21.833Z,-2.23
2018-03-01T14:00:43.686Z,-2.26
2018-03-01T14:02:05.560Z,-2.27
2018-03-01T14:03:27.484Z,-2.29
2018-03-01T14:04:49.593Z,-2.29
2018-03-01T14:06:11.203Z,-2.3
2018-03-01T14:07:32.832Z,-2.26
2018-03-01T14:08:53.921Z,-2.16
2018-03-01T14:10:15.054Z,-2.13
2018-03-01T14:11:36.961Z,-2.03
2018-03-01T14:12:58.907Z,-2.06
2018-03-01T14:14:19.983Z,-1.9
2018-03-01T14:15:41.588Z,-1.92
2018-03-01T14:17:03.493Z,-2.02
2018-03-01T14:18:25.496Z,-1.92
2018-03-01T14:19:47.147Z,-2.06
2018-03-01T14:21:09.021Z,-2.08
2018-03-01T14:22:30.776Z,-1.97
2018-03-01T14:23:52.406Z,-2.02
2018-03-01T14:25:14.264Z,-1.98
2018-03-01T14:26:36.150Z,-2.12
2018-03-01T14:27:58.310Z,-2.1
2018-03-01T14:29:19.911Z,-1.94
2018-03-01T14:30:41.514Z,-1.95
2018-03-01T14:32:02.694Z,-1.9
2018-03-01T14:33:24.573Z,-1.91
2018-03-01T14:34:46.472Z,-1.97
2018-03-01T14:36:08.491Z,-1.95
2018-03-01T14:37:30.362Z,-1.98
2018-03-01T14:38:52.362Z,-1.95
2018-03-01T14:40:13.993Z,-1.98
2018-03-01T14:41:36.164Z,-2.02
2018-03-01T14:42:58.263Z,-1.94
2018-03-01T14:44:20.517Z,-1.94
2018-03-01T14:45:41.655Z,-1.9
2018-03-01T14:47:03.551Z,-1.94
2018-03-01T14:48:25.442Z,-1.94
2018-03-01T14:49:47.325Z,-1.94
2018-03-01T14:51:08.686Z,-1.98
2018-03-01T14:52:30.572Z,-2.02
2018-03-01T14:53:52.462Z,-1.85
2018-03-01T14:55:14.753Z,-1.88
2018-03-01T14:56:36.081Z,-1.88
2018-03-01T14:57:57.694Z,-1.92
2018-03-01T14:59:19.572Z,-1.94
2018-03-01T15:00:41.898Z,-1.91
2018-03-01T15:02:03.900Z,-1.84
2018-03-01T15:03:26.074Z,-1.88
2018-03-01T15:04:48.255Z,-1.92
2018-03-01T15:06:10.404Z,-1.98
2018-03-01T15:07:32.377Z,-1.94
2018-03-01T15:08:54.582Z,-1.92
2018-03-01T15:10:16.559Z,-1.87
2018-03-01T15:11:38.476Z,-2.02
2018-03-01T15:13:00.130Z,-1.82
2018-03-01T15:14:22.280Z,-1.82
2018-03-01T15:15:44.427Z,-1.88
2018-03-01T15:17:06.594Z,-1.79
2018-03-01T15:18:28.743Z,-1.79
2018-03-01T15:19:50.926Z,-1.87
2018-03-01T15:21:12.607Z,-1.9
2018-03-01T15:22:34.573Z,-1.84
2018-03-01T15:23:56.483Z,-1.95
2018-03-01T15:25:18.664Z,-1.91
2018-03-01T15:26:40.814Z,-1.9
2018-03-01T15:28:02.745Z,-1.95
2018-03-01T15:29:25.047Z,-1.87
2018-03-01T15:30:46.956Z,-2
2018-03-01T15:32:09.106Z,-2.06
2018-03-01T15:33:31.074Z,-2.08
2018-03-01T15:34:53.309Z,-2.12
2018-03-01T15:36:14.933Z,-2.15
2018-03-01T15:37:36.830Z,-2.3
2018-03-01T15:38:58.707Z,-2.18
2018-03-01T15:40:20.686Z,-2.24
2018-03-01T15:41:42.595Z,-2.23
2018-03-01T15:43:04.745Z,-2.27
2018-03-01T15:44:26.791Z,-2.27
2018-03-01T15:45:48.715Z,-2.26
2018-03-01T15:47:10.933Z,-2.34
2018-03-01T15:48:32.797Z,-2.34
2018-03-01T15:49:54.686Z,-2.3
2018-03-01T15:51:16.592Z,-2.39
2018-03-01T15:52:38.535Z,-2.48
2018-03-01T15:54:00.149Z,-2.4
2018-03-01T15:55:22.394Z,-2.48
2018-03-01T15:56:44.301Z,-2.49
2018-03-01T15:58:05.771Z,-2.52
2018-03-01T15:59:27.665Z,-2.49
2018-03-01T16:00:49.605Z,-2.58
2018-03-01T16:02:11.597Z,-2.61
2018-03-01T16:03:33.481Z,-2.63
2018-03-01T16:04:55.139Z,-2.64
2018-03-01T16:06:16.808Z,-2.66
2018-03-01T16:07:38.712Z,-2.67
2018-03-01T16:09:00.599Z,-2.67
2018-03-01T16:10:21.951Z,-2.78
2018-03-01T16:11:43.374Z,-2.74
2018-03-01T16:13:05.263Z,-2.77
2018-03-01T16:14:26.647Z,-2.79
2018-03-01T16:15:48.012Z,-2.79
2018-03-01T16:17:10.491Z,-2.78
2018-03-01T16:18:32.252Z,-2.78
2018-03-01T16:19:53.905Z,-2.81
2018-03-01T16:21:15.781Z,-2.81
2018-03-01T16:22:37.864Z,-2.79
2018-03-01T16:23:59.764Z,-2.84
2018-03-01T16:25:21.797Z,-2.85
2018-03-01T16:26:43.707Z,-2.91
2018-03-01T16:28:05.666Z,-2.94
2018-03-01T16:29:27.857Z,-2.94
2018-03-01T16:30:50.075Z,-3.09
2018-03-01T16:32:12.252Z,-3.06
2018-03-01T16:33:34.434Z,-3.12
2018-03-01T16:34:56.554Z,-3
2018-03-01T16:36:18.433Z,-3.09
2018-03-01T16:37:40.824Z,-3.2
2018-03-01T16:39:03.042Z,-3.18
2018-03-01T16:40:25.197Z,-3.15
2018-03-01T16:41:47.105Z,-3.17
2018-03-01T16:43:09.005Z,-3.2
2018-03-01T16:44:30.945Z,-3.18
2018-03-01T16:45:52.593Z,-3.15
2018-03-01T16:47:14.494Z,-3.2
2018-03-01T16:48:36.621Z,-3.17
2018-03-01T16:49:58.501Z,-3.28
2018-03-01T16:51:20.424Z,-3.24
2018-03-01T16:52:42.551Z,-3.27
2018-03-01T16:54:04.445Z,-3.28
2018-03-01T16:55:26.332Z,-3.42
2018-03-01T16:56:48.505Z,-3.48
2018-03-01T16:58:10.484Z,-3.45
2018-03-01T16:59:32.676Z,-3.46
2018-03-01T17:00:55.276Z,-3.45
2018-03-01T17:02:17.497Z,-3.49
2018-03-01T17:03:39.146Z,-3.52
2018-03-01T17:05:01.176Z,-3.66
2018-03-01T17:06:23.308Z,-3.64
2018-03-01T17:07:45.513Z,-3.66
2018-03-01T17:09:06.873Z,-3.57
2018-03-01T17:10:29.038Z,-3.64
2018-03-01T17:11:51.067Z,-3.64
2018-03-01T17:13:13.237Z,-3.72
2018-03-01T17:14:35.445Z,-3.75
2018-03-01T17:15:57.618Z,-3.76
2018-03-01T17:17:19.834Z,-3.79
2018-03-01T17:18:41.747Z,-3.81
2018-03-01T17:20:03.708Z,-3.83
2018-03-01T17:21:25.910Z,-3.78
2018-03-01T17:22:48.165Z,-3.85
2018-03-01T17:24:10.087Z,-3.9
2018-03-01T17:25:31.979Z,-3.86
2018-03-01T17:26:54.065Z,-3.94
2018-03-01T17:28:15.752Z,-3.91
2018-03-01T17:29:37.396Z,-3.93
2018-03-01T17:30:59.559Z,-3.94
2018-03-01T17:32:21.240Z,-3.99
2018-03-01T17:33:43.534Z,-3.94
2018-03-01T17:35:05.692Z,-4.01
2018-03-01T17:36:27.906Z,-3.94
2018-03-01T17:37:49.544Z,-4
2018-03-01T17:39:11.724Z,-4.04
2018-03-01T17:40:33.679Z,-3.99